WXM80 ListenWXM80 Stop

You find our weather info also at:

UK Metoffice

WeatherCloud

Weather Underground

Northeastern Weather Network

AWEKAS

Citizen Weather Observer Program (CWOP)

HAMweather, WeatherForYou, PWS Weather


Weather Underground History page Text

Daily Summary for June 30, 2017 Units:  Metric    English   Both
« Previous Day
Next Day »
Daily Weekly Monthly Yearly Custom
  High: Low: Average:
Temperature: 31.1 °C 20.8 °C 25.1 °C
Dew Point: 22.9 °C 15.7 °C 19.8 °C
Humidity: 84 % 60 % 73 %
Wind Speed: 9.8 km/h 0 km/h 3.4 km/h
Wind Gust: 20.9 km/h - -
Wind:- - SSW
Pressure: 1015.5 hPa 1010.7 hPa -
Precipitation: 0.51 mm    
Historical Graphs
 
 
Tabular Data for June 30, 2017
Time Temperature Dew Point Pressure Wind Wind Speed Wind Gust Humidity Rainfall Rate (Hourly)
00:01 21.9 °C 16.4 °C 1015.5 hPa West 2.9 km/h 5.6 km/h 71 % 0 mm
00:06 21.9 °C 16.4 °C 1015.1 hPa SSW 5 km/h 9.3 km/h 71 % 0 mm
00:09 21.9 °C 16.4 °C 1015.5 hPa SW 4.3 km/h 7.4 km/h 71 % 0 mm
00:14 21.9 °C 16.4 °C 1015.5 hPa South 2.7 km/h 11.1 km/h 71 % 0 mm
00:19 21.9 °C 16.2 °C 1015.1 hPa SW 4.3 km/h 8 km/h 70 % 0 mm
00:24 21.8 °C 16.1 °C 1015.1 hPa SSW 1.8 km/h 5.6 km/h 70 % 0 mm
00:29 21.8 °C 16.1 °C 1015.1 hPa SSW 2.7 km/h 3.7 km/h 70 % 0 mm
00:34 21.8 °C 16.1 °C 1015.1 hPa SSW 2.4 km/h 5.6 km/h 70 % 0 mm
00:39 21.8 °C 16.1 °C 1015.1 hPa SSW 3.5 km/h 9.7 km/h 70 % 0 mm
00:44 21.8 °C 16.1 °C 1015.1 hPa SSE 2.1 km/h 5.6 km/h 70 % 0 mm
00:49 21.7 °C 16 °C 1015.1 hPa SSW 3.5 km/h 5.6 km/h 70 % 0 mm
00:54 21.7 °C 16 °C 1015.1 hPa SSW 3.4 km/h 5.6 km/h 70 % 0 mm
00:59 21.7 °C 15.7 °C 1015.1 hPa SW 3.1 km/h 9.3 km/h 69 % 0 mm
01:04 21.7 °C 15.9 °C 1015.1 hPa SSW 1.1 km/h 5.6 km/h 70 % 0 mm
01:09 21.6 °C 15.9 °C 1015.1 hPa SW 2.6 km/h 5.6 km/h 70 % 0 mm
01:14 21.6 °C 15.8 °C 1015.1 hPa ESE 5.8 km/h 7.4 km/h 70 % 0 mm
01:19 21.6 °C 15.8 °C 1015.1 hPa SSW 4 km/h 11.3 km/h 70 % 0 mm
01:24 21.5 °C 15.8 °C 1015.1 hPa SSW 1.3 km/h 5.6 km/h 70 % 0 mm
01:29 21.5 °C 15.8 °C 1015.1 hPa WSW 3.5 km/h 5.6 km/h 70 % 0 mm
01:35 21.4 °C 15.7 °C 1015.1 hPa SSW 5.5 km/h 14.8 km/h 70 % 0 mm
01:38 21.4 °C 15.7 °C 1015.1 hPa SW 1.8 km/h 3.7 km/h 70 % 0 mm
01:44 21.4 °C 15.7 °C 1015.1 hPa WSW 2.3 km/h 5.6 km/h 70 % 0 mm
01:49 21.4 °C 15.9 °C 1015.1 hPa WSW 4 km/h 11.1 km/h 71 % 0 mm
01:53 21.4 °C 15.9 °C 1015.1 hPa WSW 1.3 km/h 5.6 km/h 71 % 0 mm
01:58 21.4 °C 15.9 °C 1015.1 hPa WSW 0.2 km/h 5.6 km/h 71 % 0 mm
02:04 21.3 °C 15.8 °C 1014.8 hPa West 2.9 km/h 12.9 km/h 71 % 0 mm
02:09 21.3 °C 15.8 °C 1014.8 hPa SW 1.4 km/h 5.6 km/h 71 % 0 mm
02:14 21.3 °C 16.1 °C 1014.8 hPa WSW 3.7 km/h 6.4 km/h 72 % 0 mm
02:19 21.3 °C 16.1 °C 1014.8 hPa NW 4.5 km/h 11.3 km/h 72 % 0 mm
02:24 21.3 °C 16.1 °C 1014.8 hPa SSW 2.3 km/h 9.3 km/h 72 % 0 mm
02:29 21.4 °C 16.1 °C 1014.8 hPa South 1.9 km/h 1.9 km/h 72 % 0 mm
02:34 21.4 °C 16.1 °C 1014.8 hPa SW 3.1 km/h 7.4 km/h 72 % 0 mm
02:39 21.4 °C 16.2 °C 1014.8 hPa SW 2.9 km/h 11.1 km/h 72 % 0 mm
02:44 21.4 °C 16.2 °C 1014.8 hPa WSW 2.4 km/h 5.6 km/h 72 % 0 mm
02:49 21.4 °C 16.4 °C 1014.8 hPa SW 2.6 km/h 6.4 km/h 73 % 0 mm
02:54 21.5 °C 16.2 °C 1014.8 hPa SW 1.1 km/h 5.6 km/h 72 % 0 mm
02:59 21.5 °C 16.4 °C 1014.8 hPa WSW 6.9 km/h 8 km/h 73 % 0 mm
03:04 21.5 °C 16.4 °C 1014.8 hPa SSE 2.3 km/h 5.6 km/h 73 % 0 mm
03:09 21.6 °C 16.5 °C 1014.8 hPa SW 5.5 km/h 14.5 km/h 73 % 0 mm
03:14 21.6 °C 16.5 °C 1014.4 hPa SW 6 km/h 16.7 km/h 73 % 0 mm
03:19 21.6 °C 16.6 °C 1014.4 hPa SW 3.7 km/h 13 km/h 73 % 0 mm
03:24 21.6 °C 16.6 °C 1014.4 hPa SW 2.9 km/h 7.4 km/h 73 % 0 mm
03:29 21.7 °C 16.6 °C 1014.4 hPa WSW 1.6 km/h 5.6 km/h 73 % 0 mm
03:34 21.7 °C 16.6 °C 1014.4 hPa SSW 5.1 km/h 5.6 km/h 73 % 0 mm
03:40 21.7 °C 16.6 °C 1014.1 hPa WSW 4.5 km/h 5.6 km/h 73 % 0 mm
03:45 21.7 °C 16.6 °C 1014.1 hPa SSW 2.9 km/h 5.6 km/h 73 % 0 mm
03:50 21.7 °C 16.8 °C 1014.1 hPa WSW 5.3 km/h 11.1 km/h 74 % 0 mm
03:55 21.7 °C 16.8 °C 1014.1 hPa SSW 1 km/h 5.6 km/h 74 % 0 mm
04:00 21.6 °C 17 °C 1014.1 hPa West 0.2 km/h 3.7 km/h 75 % 0 mm
04:05 21.6 °C 17 °C 1014.1 hPa WSW 8 km/h 13 km/h 75 % 0 mm
04:10 21.6 °C 16.9 °C 1014.1 hPa SW 3.5 km/h 5.6 km/h 75 % 0 mm
04:15 21.6 °C 16.9 °C 1013.8 hPa SSW 0.6 km/h 3.7 km/h 75 % 0 mm
04:20 21.5 °C 17.1 °C 1014.1 hPa WSW 4.5 km/h 5.6 km/h 76 % 0 mm
04:25 21.5 °C 17.1 °C 1014.1 hPa WSW 3.2 km/h 5.6 km/h 76 % 0 mm
04:30 21.5 °C 17.1 °C 1014.1 hPa West 1.1 km/h 4.8 km/h 76 % 0 mm
04:35 21.4 °C 17.1 °C 1014.1 hPa SW 8.5 km/h 13 km/h 76 % 0 mm
04:40 21.4 °C 17.1 °C 1014.1 hPa SSW 3.7 km/h 9.3 km/h 76 % 0 mm
04:45 21.4 °C 17.2 °C 1014.1 hPa SW 0.5 km/h 9.3 km/h 77 % 0 mm
04:50 21.3 °C 17.1 °C 1014.1 hPa SW 0.2 km/h 1.9 km/h 77 % 0 mm
04:51 21.3 °C 17.1 °C 1014.1 hPa SW 0.5 km/h 4.8 km/h 77 % 0 mm
04:56 21.3 °C 17.1 °C 1014.1 hPa WSW 0.3 km/h 3.7 km/h 77 % 0 mm
05:01 21.2 °C 17.2 °C 1014.1 hPa West 2.3 km/h 5.6 km/h 78 % 0 mm
05:06 21.1 °C 17.1 °C 1014.1 hPa WSW 2.3 km/h 5.6 km/h 78 % 0 mm
05:11 21.1 °C 17.1 °C 1014.1 hPa West 1.1 km/h 4.8 km/h 78 % 0 mm
05:16 20.9 °C 17.2 °C 1014.1 hPa SW 2.1 km/h 6.4 km/h 79 % 0 mm
05:21 20.9 °C 17.1 °C 1014.1 hPa SW 2.7 km/h 9.3 km/h 79 % 0 mm
05:31 20.8 °C 17.3 °C 1014.1 hPa SSW 2.7 km/h 6.4 km/h 80 % 0 mm
05:36 20.8 °C 17.2 °C 1014.1 hPa WSW 1.9 km/h 5.6 km/h 80 % 0 mm
05:41 20.8 °C 17.2 °C 1014.1 hPa SSW 1.8 km/h 5.6 km/h 80 % 0 mm
05:46 20.8 °C 17.4 °C 1014.1 hPa South 1.9 km/h 5.6 km/h 81 % 0 mm
05:51 20.8 °C 17.4 °C 1014.1 hPa SSW 2.6 km/h 5.6 km/h 81 % 0 mm
05:56 20.8 °C 17.4 °C 1014.4 hPa SW 3.9 km/h 5.6 km/h 81 % 0 mm
06:01 20.8 °C 17.4 °C 1014.1 hPa SW 0.5 km/h 1.9 km/h 81 % 0 mm
06:06 20.8 °C 17.7 °C 1014.1 hPa SSW 4.3 km/h 6.4 km/h 82 % 0 mm
06:11 20.9 °C 17.7 °C 1014.1 hPa SSW 5 km/h 7.4 km/h 82 % 0 mm
06:16 20.9 °C 17.8 °C 1014.1 hPa SSW 3.4 km/h 5.6 km/h 82 % 0 mm
06:21 21 °C 17.8 °C 1014.1 hPa SW 2.1 km/h 3.7 km/h 82 % 0 mm
06:26 21.1 °C 17.9 °C 1014.1 hPa SW 3.5 km/h 7.4 km/h 82 % 0 mm
06:31 21.1 °C 17.9 °C 1014.1 hPa SSW 0.6 km/h 3.7 km/h 82 % 0 mm
06:36 21.2 °C 17.9 °C 1014.1 hPa WSW 1.8 km/h 7.4 km/h 82 % 0 mm
06:41 21.2 °C 17.9 °C 1014.1 hPa SW 0.5 km/h 3.2 km/h 82 % 0 mm
06:46 21.2 °C 18 °C 1014.4 hPa West 2.4 km/h 9.3 km/h 82 % 0 mm
06:51 21.2 °C 18 °C 1014.4 hPa Calm   1.9 km/h 82 % 0 mm
06:56 21.3 °C 18.1 °C 1014.1 hPa SSW 0.5 km/h 5.6 km/h 82 % 0 mm
07:01 21.3 °C 18.1 °C 1014.1 hPa SSW 3.1 km/h 6.4 km/h 82 % 0 mm
07:06 21.3 °C 18.1 °C 1014.1 hPa WSW 1.4 km/h 3.7 km/h 82 % 0 mm
07:11 21.3 °C 18.1 °C 1014.1 hPa WSW 1.8 km/h 11.1 km/h 82 % 0 mm
07:16 21.3 °C 18.3 °C 1014.1 hPa SSE 1.1 km/h 3.7 km/h 83 % 0 mm
07:21 21.4 °C 18.2 °C 1014.1 hPa WSW 1.9 km/h 5.6 km/h 82 % 0 mm
07:26 21.4 °C 18.4 °C 1014.1 hPa SW 0.6 km/h 5.6 km/h 83 % 0 mm
07:31 21.4 °C 18.4 °C 1014.4 hPa South 0.5 km/h 3.7 km/h 83 % 0 mm
07:37 21.5 °C 18.5 °C 1014.4 hPa WSW 0.5 km/h 5.6 km/h 83 % 0 mm
07:42 21.6 °C 18.6 °C 1014.4 hPa SW 1.9 km/h 5.6 km/h 83 % 0 mm
07:47 21.6 °C 18.6 °C 1014.8 hPa WSW 1.3 km/h 5.6 km/h 83 % 0 mm
07:52 21.7 °C 18.7 °C 1014.4 hPa Calm   5.6 km/h 83 % 0 mm
07:57 21.7 °C 18.7 °C 1014.4 hPa WSW 1.1 km/h 3.7 km/h 83 % 0 mm
08:02 21.8 °C 18.8 °C 1014.8 hPa WSW 2.3 km/h 6.4 km/h 83 % 0 mm
08:07 21.9 °C 18.9 °C 1014.8 hPa SW 3.9 km/h 7.4 km/h 83 % 0 mm
08:12 22 °C 19 °C 1014.8 hPa SW 0.5 km/h 5.6 km/h 83 % 0 mm
08:17 22.1 °C 19.1 °C 1014.8 hPa WSW 5.3 km/h 16.1 km/h 83 % 0 mm
08:22 22.2 °C 19.2 °C 1014.8 hPa South 2.7 km/h 9.3 km/h 83 % 0 mm
08:23 22.3 °C 19.2 °C 1014.8 hPa West 4.7 km/h 7.4 km/h 83 % 0 mm
08:28 22.4 °C 19.2 °C 1014.8 hPa SSW 3.1 km/h 5.6 km/h 82 % 0 mm
08:33 22.6 °C 19.1 °C 1014.8 hPa SW 0.6 km/h 7.4 km/h 81 % 0 mm
08:38 22.7 °C 19.4 °C 1014.8 hPa SSW 0.2 km/h 1.9 km/h 82 % 0 mm
08:43 22.8 °C 19.4 °C 1014.8 hPa SW 2.3 km/h 3.7 km/h 81 % 0 mm
08:48 22.9 °C 19.5 °C 1014.8 hPa WSW 5.5 km/h 8 km/h 81 % 0 mm
08:53 23.1 °C 19.4 °C 1014.8 hPa SSW 2.3 km/h 7.4 km/h 80 % 0 mm
08:58 23.3 °C 19.6 °C 1014.8 hPa SW 5.5 km/h 11.1 km/h 80 % 0 mm
09:03 23.4 °C 19.7 °C 1014.4 hPa SSW 2.9 km/h 11.1 km/h 80 % 0 mm
09:08 23.6 °C 19.7 °C 1014.4 hPa SW 9.3 km/h 11.1 km/h 79 % 0 mm
09:14 23.7 °C 19.7 °C 1014.4 hPa SSW 4.3 km/h 13 km/h 78 % 0 mm
09:19 23.8 °C 19.8 °C 1014.4 hPa SW 2.9 km/h 5.6 km/h 78 % 0 mm
09:24 24 °C 19.9 °C 1014.4 hPa SSW 4 km/h 7.4 km/h 78 % 0 mm
09:29 24.2 °C 20.3 °C 1014.4 hPa SW 4.7 km/h 9.7 km/h 79 % 0 mm
09:34 24.3 °C 20.2 °C 1014.4 hPa SW 4 km/h 9.3 km/h 78 % 0 mm
09:39 24.6 °C 20.5 °C 1014.4 hPa SSW 2.6 km/h 5.6 km/h 78 % 0 mm
09:44 24.9 °C 20.4 °C 1014.4 hPa Calm   5.6 km/h 76 % 0 mm
09:47 25.1 °C 20.5 °C 1014.4 hPa SW 1.9 km/h 4.8 km/h 76 % 0 mm
09:52 25.3 °C 20.8 °C 1014.4 hPa SW 1.1 km/h 3.2 km/h 76 % 0 mm
09:57 25.6 °C 20.6 °C 1014.4 hPa SSW 4.7 km/h 7.4 km/h 74 % 0 mm
10:02 25.8 °C 20.8 °C 1014.4 hPa SW 0.2 km/h 3.7 km/h 74 % 0 mm
10:07 25.9 °C 20.9 °C 1014.8 hPa West 2.4 km/h 5.6 km/h 74 % 0 mm
10:12 26.1 °C 20.7 °C 1014.8 hPa WSW 4.3 km/h 9.3 km/h 72 % 0 mm
10:14 26.2 °C 20.9 °C 1014.8 hPa West 4.2 km/h 7.4 km/h 73 % 0 mm
10:19 26.3 °C 21.1 °C 1014.4 hPa SW 3.2 km/h 7.4 km/h 73 % 0 mm
10:24 26.4 °C 20.8 °C 1014.4 hPa SSW 0.6 km/h 3.7 km/h 71 % 0 mm
10:29 26.6 °C 21.1 °C 1014.4 hPa SSW 1.8 km/h 5.6 km/h 72 % 0 mm
10:34 26.8 °C 21.6 °C 1014.4 hPa SSW 1.3 km/h 5.6 km/h 73 % 0 mm
10:39 27 °C 21.5 °C 1014.4 hPa SW 1.3 km/h 3.7 km/h 72 % 0 mm
10:42 27.1 °C 21.4 °C 1014.4 hPa SW 3.7 km/h 5.6 km/h 71 % 0 mm
10:47 27.3 °C 21.3 °C 1014.4 hPa SSW 4.3 km/h 5.6 km/h 70 % 0 mm
10:52 27.3 °C 21.2 °C 1014.4 hPa South 2.4 km/h 7.4 km/h 69 % 0 mm
10:57 27.4 °C 21.9 °C 1014.4 hPa SSW 2.3 km/h 3.7 km/h 72 % 0 mm
11:02 27.7 °C 21.7 °C 1014.4 hPa SW 0.8 km/h 5.6 km/h 70 % 0 mm
11:07 27.8 °C 21.6 °C 1014.4 hPa SSW 5.6 km/h 11.1 km/h 69 % 0 mm
11:12 28.1 °C 21.8 °C 1014.8 hPa SSW 1.4 km/h 6.4 km/h 69 % 0 mm
11:17 28.2 °C 21.8 °C 1014.4 hPa SSE 0.2 km/h 5.6 km/h 68 % 0 mm
11:22 28.4 °C 22.2 °C 1014.4 hPa SW 0.2 km/h 7.4 km/h 69 % 0 mm
11:27 28.7 °C 22.4 °C 1014.8 hPa WSW 2.1 km/h 6.4 km/h 69 % 0 mm
11:32 28.9 °C 22.2 °C 1014.8 hPa SE 5.6 km/h 9.3 km/h 67 % 0 mm
11:37 29.1 °C 22.1 °C 1014.8 hPa South 6.6 km/h 16.7 km/h 66 % 0 mm
11:40 29.3 °C 22.3 °C 1014.8 hPa SSW 6.9 km/h 8 km/h 66 % 0 mm
11:45 29.6 °C 22.8 °C 1014.4 hPa SSW 3.7 km/h 7.4 km/h 67 % 0 mm
11:50 29.9 °C 22.6 °C 1014.1 hPa SSW 1.4 km/h 5.6 km/h 65 % 0 mm
11:55 30.1 °C 22.6 °C 1014.1 hPa SW 3.5 km/h 5.6 km/h 64 % 0 mm
12:01 30.2 °C 22.7 °C 1014.1 hPa Calm     64 % 0 mm
12:06 30.3 °C 22.2 °C 1014.1 hPa Calm   1.9 km/h 62 % 0 mm
12:11 30.4 °C 22.3 °C 1014.1 hPa SSE 1.1 km/h 3.7 km/h 62 % 0 mm
12:16 30.4 °C 21.8 °C 1014.1 hPa SSE 0.6 km/h 9.3 km/h 60 % 0 mm
12:21 30.3 °C 22.2 °C 1014.1 hPa South 5.1 km/h 9.3 km/h 62 % 0 mm
12:26 30.1 °C 21.8 °C 1014.1 hPa SSW 2.4 km/h 5.6 km/h 61 % 0 mm
12:31 30.2 °C 22.8 °C 1013.8 hPa SSE 2.1 km/h 5.6 km/h 65 % 0 mm
12:36 30.2 °C 22.7 °C 1014.1 hPa SSW 3.5 km/h 6.4 km/h 64 % 0 mm
12:41 30.1 °C 22.2 °C 1014.1 hPa SE 1.6 km/h 5.6 km/h 63 % 0 mm
12:46 29.8 °C 22.1 °C 1014.1 hPa SSE 1.6 km/h 4.8 km/h 63 % 0 mm
12:51 29.6 °C 21.8 °C 1013.8 hPa SSW 0.8 km/h 3.7 km/h 63 % 0 mm
12:56 29.3 °C 21.8 °C 1013.8 hPa SSE 2.6 km/h 5.6 km/h 64 % 0 mm
13:01 29.1 °C 22.1 °C 1013.8 hPa South 0.2 km/h 1.9 km/h 66 % 0 mm
13:06 29.2 °C 22.2 °C 1013.8 hPa SSE 2.1 km/h 7.4 km/h 66 % 0 mm
13:11 29.2 °C 21.9 °C 1013.4 hPa SSW 7.4 km/h 9.3 km/h 65 % 0 mm
13:16 29.4 °C 22.1 °C 1013.4 hPa SSW 2.4 km/h 8 km/h 65 % 0 mm
13:21 29.6 °C 22.6 °C 1013.4 hPa SSE 4.7 km/h 16.1 km/h 66 % 0 mm
13:26 29.7 °C 22.4 °C 1013.4 hPa SW 7.1 km/h 13 km/h 65 % 0 mm
13:29 29.7 °C 21.9 °C 1013.4 hPa ESE 4.5 km/h 7.4 km/h 63 % 0 mm
13:34 29.8 °C 22 °C 1013.4 hPa SSE 1.9 km/h 9.3 km/h 63 % 0 mm
13:39 29.8 °C 22.3 °C 1013.4 hPa SSE 2.1 km/h 7.4 km/h 64 % 0 mm
13:44 29.9 °C 22.3 °C 1013.4 hPa South 2.4 km/h 11.1 km/h 64 % 0 mm
13:49 30.1 °C 22.8 °C 1013.1 hPa SW 6 km/h 16.7 km/h 65 % 0 mm
13:54 30.3 °C 22.5 °C 1013.1 hPa South 2.6 km/h 9.7 km/h 63 % 0 mm
13:59 30.4 °C 22.6 °C 1013.1 hPa SE 5 km/h 11.1 km/h 63 % 0 mm
14:04 30.6 °C 22.7 °C 1013.1 hPa SSW 8 km/h 20.9 km/h 63 % 0 mm
14:09 30.6 °C 22.2 °C 1013.1 hPa SW 4.5 km/h 8 km/h 61 % 0 mm
14:14 30.7 °C 22.3 °C 1013.1 hPa South 4.7 km/h 12.9 km/h 61 % 0 mm
14:19 30.7 °C 22 °C 1013.1 hPa South 3.2 km/h 13 km/h 60 % 0 mm
14:21 30.7 °C 22 °C 1013.1 hPa SSE 3.4 km/h 7.4 km/h 60 % 0 mm
14:26 30.7 °C 22.9 °C 1013.1 hPa ESE 4.3 km/h 5.6 km/h 63 % 0 mm
14:31 30.8 °C 22.7 °C 1012.8 hPa South 4.5 km/h 12.9 km/h 62 % 0 mm
14:37 30.8 °C 22.2 °C 1012.8 hPa SE 4.2 km/h 5.6 km/h 60 % 0 mm
14:42 30.8 °C 22.7 °C 1012.4 hPa SSE 1.6 km/h 13 km/h 62 % 0 mm
14:47 30.8 °C 22.4 °C 1012.8 hPa SSW 5.5 km/h 14.8 km/h 61 % 0 mm
14:52 30.8 °C 22.4 °C 1012.4 hPa South 5 km/h 14.8 km/h 61 % 0 mm
14:54 30.8 °C 22.7 °C 1012.4 hPa NE 1.6 km/h 5.6 km/h 62 % 0 mm
14:59 30.8 °C 22.7 °C 1012.4 hPa SW 6.1 km/h 11.1 km/h 62 % 0 mm
15:04 30.9 °C 22.8 °C 1012.4 hPa SW 5 km/h 11.3 km/h 62 % 0 mm
15:09 31 °C 22.9 °C 1012.1 hPa SSW 4 km/h 8 km/h 62 % 0 mm
15:10 31 °C 22.6 °C 1012.1 hPa West 5.6 km/h 7.4 km/h 61 % 0 mm
15:15 31.1 °C 22.4 °C 1012.1 hPa SSW 7.1 km/h 7.4 km/h 60 % 0 mm
15:20 31 °C 22.3 °C 1012.1 hPa SSW 4 km/h 9.3 km/h 60 % 0 mm
15:25 30.8 °C 22.4 °C 1012.1 hPa SSW 6.1 km/h 13 km/h 61 % 0 mm
15:30 30.8 °C 22.7 °C 1012.1 hPa SE 2.3 km/h 18.5 km/h 62 % 0 mm
15:31 30.8 °C 22.9 °C 1012.1 hPa SE 1.9 km/h 5.6 km/h 63 % 0 mm
15:41 30.8 °C 22.9 °C 1012.1 hPa South 2.4 km/h 6.4 km/h 63 % 0 mm
15:46 30.6 °C 22.4 °C 1012.1 hPa SSW 4.7 km/h 9.3 km/h 62 % 0 mm
15:51 30.5 °C 22.4 °C 1012.1 hPa SSE 3.9 km/h 9.7 km/h 62 % 0 mm
15:56 30.3 °C 21.9 °C 1012.1 hPa South 2.1 km/h 5.6 km/h 61 % 0 mm
16:01 30.2 °C 22.3 °C 1012.1 hPa South 5.8 km/h 6.4 km/h 63 % 0 mm
16:06 30.2 °C 22.6 °C 1011.7 hPa South 3.1 km/h 5.6 km/h 64 % 0 mm
16:11 30.2 °C 22.3 °C 1011.7 hPa SE 2.1 km/h 9.3 km/h 63 % 0 mm
16:16 30.2 °C 22.8 °C 1011.7 hPa South 4.7 km/h 11.1 km/h 65 % 0 mm
16:21 30.2 °C 22.4 °C 1011.7 hPa SSE 4.3 km/h 12.9 km/h 63 % 0 mm
16:26 30 °C 22.2 °C 1011.7 hPa SE 1.4 km/h 9.3 km/h 63 % 0 mm
16:31 29.8 °C 22.3 °C 1011.7 hPa SSE 5.3 km/h 9.3 km/h 64 % 0 mm
16:36 29.7 °C 22.1 °C 1011.7 hPa South 5.6 km/h 11.1 km/h 64 % 0 mm
16:41 29.7 °C 22.4 °C 1011.4 hPa SSE 4.3 km/h 16.7 km/h 65 % 0 mm
16:46 29.7 °C 22.4 °C 1011.4 hPa SE 2.9 km/h 9.3 km/h 65 % 0 mm
16:51 29.5 °C 21.9 °C 1011.4 hPa SSE 8 km/h 11.1 km/h 64 % 0 mm
16:56 29.3 °C 22.1 °C 1011.4 hPa South 6.4 km/h 12.9 km/h 65 % 0 mm
17:02 29.1 °C 21.8 °C 1011.1 hPa South 5.6 km/h 13 km/h 65 % 0 mm
17:06 28.9 °C 21.7 °C 1011.1 hPa SE 6 km/h 9.3 km/h 65 % 0 mm
17:11 28.7 °C 21.7 °C 1011.1 hPa SW 7.6 km/h 16.1 km/h 66 % 0 mm
17:16 28.4 °C 21.5 °C 1011.1 hPa SSW 6.8 km/h 14.8 km/h 66 % 0 mm
17:21 28.3 °C 21.6 °C 1011.1 hPa SE 3.1 km/h 5.6 km/h 67 % 0 mm
17:26 28.1 °C 21.7 °C 1011.1 hPa South 4.5 km/h 9.3 km/h 68 % 0 mm
17:31 28 °C 21.3 °C 1010.7 hPa SSE 5.3 km/h 13 km/h 67 % 0 mm
17:37 27.8 °C 21.3 °C 1010.7 hPa South 4 km/h 16.7 km/h 68 % 0 mm
17:42 27.6 °C 21.1 °C 1010.7 hPa SE 4.2 km/h 7.4 km/h 68 % 0 mm
17:47 27.4 °C 21.2 °C 1010.7 hPa SSW 4.2 km/h 13 km/h 69 % 0 mm
17:52 27.3 °C 21.2 °C 1010.7 hPa SSW 5.8 km/h 11.3 km/h 69 % 0 mm
17:55 27.3 °C 21.1 °C 1010.7 hPa SSE 3.4 km/h 9.3 km/h 69 % 0 mm
18:00 27.1 °C 20.9 °C 1010.7 hPa SW 4.3 km/h 11.1 km/h 69 % 0 mm
18:05 27 °C 20.8 °C 1010.7 hPa SW 4.8 km/h 11.1 km/h 69 % 0 mm
18:10 26.9 °C 20.7 °C 1010.7 hPa South 2.1 km/h 3.7 km/h 69 % 0 mm
18:15 26.8 °C 20.6 °C 1010.7 hPa SSW 2.7 km/h 7.4 km/h 69 % 0 mm
18:20 26.7 °C 20.6 °C 1010.7 hPa SSE 2.9 km/h 9.3 km/h 69 % 0 mm
18:25 26.6 °C 20.4 °C 1010.7 hPa SSE 4.3 km/h 9.7 km/h 69 % 0 mm
18:30 26.5 °C 20.3 °C 1010.7 hPa South 5.5 km/h 9.3 km/h 69 % 0 mm
18:35 26.4 °C 20.2 °C 1011.1 hPa SE 3.2 km/h 6.4 km/h 69 % 0 mm
18:40 26.3 °C 20.4 °C 1011.1 hPa SSW 4.7 km/h 9.7 km/h 70 % 0 mm
18:45 26.2 °C 20.3 °C 1011.1 hPa SSW 6.4 km/h 11.1 km/h 70 % 0 mm
18:47 26.2 °C 20.3 °C 1011.1 hPa SSW 5.1 km/h 9.7 km/h 70 % 0 mm
18:51 26.2 °C 20.3 °C 1011.1 hPa SSE 3.7 km/h 7.4 km/h 70 % 0 mm
18:56 26.1 °C 20.4 °C 1011.4 hPa SSW 8 km/h 12.9 km/h 71 % 0 mm
19:01 26.1 °C 20.4 °C 1011.4 hPa SSW 9.8 km/h 14.5 km/h 71 % 0 mm
19:06 26 °C 20.3 °C 1011.7 hPa SW 6.3 km/h 9.7 km/h 71 % 0 mm
19:11 26 °C 20.3 °C 1011.7 hPa South 5.3 km/h 11.1 km/h 71 % 0 mm
19:16 25.9 °C 20.3 °C 1011.7 hPa SSW 6.3 km/h 11.1 km/h 71 % 0 mm
19:21 25.9 °C 20.3 °C 1011.7 hPa East 6.9 km/h 14.8 km/h 71 % 0 mm
19:26 25.9 °C 20.3 °C 1011.7 hPa SSW 6.3 km/h 14.5 km/h 71 % 0 mm
19:31 25.9 °C 20.2 °C 1011.7 hPa South 7.6 km/h 11.1 km/h 71 % 0 mm
19:36 25.8 °C 20.2 °C 1011.7 hPa WSW 4.3 km/h 18.5 km/h 71 % 0 mm
19:42 25.8 °C 20.2 °C 1011.7 hPa South 8.5 km/h 11.3 km/h 71 % 0 mm
19:47 25.8 °C 20.3 °C 1011.7 hPa ESE 4.5 km/h 14.8 km/h 72 % 0 mm
19:52 25.7 °C 20.3 °C 1012.1 hPa SSE 4.8 km/h 11.1 km/h 72 % 0 mm
19:57 25.7 °C 20.3 °C 1012.1 hPa SSW 7.2 km/h 13 km/h 72 % 0 mm
20:02 25.7 °C 20.2 °C 1012.1 hPa SSW 8 km/h 16.7 km/h 72 % 0 mm
20:07 25.7 °C 20.2 °C 1012.1 hPa WSW 2.3 km/h 8 km/h 72 % 0 mm
20:12 25.6 °C 20.4 °C 1012.1 hPa SSW 5.6 km/h 13 km/h 73 % 0 mm
20:17 25.6 °C 20.4 °C 1012.4 hPa SW 6.1 km/h 11.1 km/h 73 % 0 mm
20:22 25.6 °C 20.8 °C 1012.1 hPa South 4 km/h 6.4 km/h 75 % 0 mm
20:27 25.4 °C 20.8 °C 1012.4 hPa SSW 6.3 km/h 9.3 km/h 76 % 0 mm
20:32 25.2 °C 20.9 °C 1012.4 hPa South 3.5 km/h 13 km/h 77 % 0 mm
20:37 25 °C 21.1 °C 1012.4 hPa South 5.1 km/h 7.4 km/h 79 % 0 mm
20:42 24.8 °C 21.1 °C 1012.4 hPa SSW 3.2 km/h 5.6 km/h 80 % 0.25 mm
20:47 24.5 °C 21 °C 1012.4 hPa South 2.6 km/h 5.6 km/h 81 % 0.25 mm
20:52 24.2 °C 20.9 °C 1012.8 hPa SSW 3.4 km/h 5.6 km/h 82 % 0.51 mm
20:57 24 °C 20.7 °C 1012.8 hPa SSW 2.9 km/h 5.6 km/h 82 % 0.51 mm
21:03 23.8 °C 20.7 °C 1012.8 hPa SSE 2.6 km/h 5.6 km/h 83 % 0.51 mm
21:08 23.6 °C 20.6 °C 1012.8 hPa SSW 3.1 km/h 5.6 km/h 83 % 0.51 mm
21:13 23.4 °C 20.6 °C 1013.1 hPa SE 1.9 km/h 5.6 km/h 84 % 0.51 mm
21:18 23.3 °C 20.4 °C 1013.1 hPa SSW 1.6 km/h 5.6 km/h 84 % 0.51 mm
21:23 23.2 °C 20.4 °C 1013.1 hPa SSW 3.1 km/h 7.4 km/h 84 % 0.51 mm
21:28 23.2 °C 20.3 °C 1013.4 hPa South 4.3 km/h 9.3 km/h 84 % 0.51 mm
21:33 23.1 °C 20.3 °C 1013.4 hPa SE 3.5 km/h 5.6 km/h 84 % 0.51 mm
21:38 23.1 °C 20.2 °C 1013.4 hPa SSE 1.6 km/h 5.6 km/h 84 % 0.25 mm
21:43 23.1 °C 20.2 °C 1013.1 hPa SSW 2.1 km/h 5.6 km/h 84 % 0.25 mm
21:48 23.1 °C 20.2 °C 1013.1 hPa South 2.3 km/h 5.6 km/h 84 % 0 mm
21:53 23.1 °C 20.2 °C 1013.1 hPa SSW 5.6 km/h 11.1 km/h 84 % 0 mm
21:58 23.1 °C 20.2 °C 1013.1 hPa SE 1.8 km/h 5.6 km/h 84 % 0 mm
22:03 23.1 °C 20.3 °C 1013.1 hPa SSW 2.9 km/h 5.6 km/h 84 % 0 mm
22:08 23.2 °C 20.1 °C 1013.1 hPa SE 2.4 km/h 5.6 km/h 83 % 0 mm
22:13 23.2 °C 20.2 °C 1013.1 hPa SSW 3.4 km/h 9.3 km/h 83 % 0 mm
22:18 23.2 °C 20.4 °C 1013.4 hPa South 2.9 km/h 6.4 km/h 84 % 0 mm
22:23 23.3 °C 20.4 °C 1013.1 hPa SSW 3.5 km/h 5.6 km/h 84 % 0 mm
22:28 23.3 °C 20.4 °C 1013.4 hPa South 3.2 km/h 5.6 km/h 84 % 0 mm
22:33 23.3 °C 20.4 °C 1013.4 hPa SSW 4.3 km/h 5.6 km/h 84 % 0 mm
22:38 23.3 °C 20.4 °C 1013.1 hPa South 3.4 km/h 9.3 km/h 84 % 0 mm
22:43 23.3 °C 20.3 °C 1013.1 hPa South 2.3 km/h 9.3 km/h 83 % 0 mm
22:48 23.4 °C 20.3 °C 1013.1 hPa SSW 4 km/h 9.3 km/h 83 % 0 mm
22:53 23.4 °C 20.3 °C 1013.1 hPa SSW 0.6 km/h 7.4 km/h 83 % 0 mm
22:58 23.4 °C 20.4 °C 1013.1 hPa South 2.7 km/h 5.6 km/h 83 % 0 mm
23:03 23.4 °C 20.4 °C 1013.1 hPa SSW 2.4 km/h 5.6 km/h 83 % 0 mm
23:08 23.5 °C 20.4 °C 1012.8 hPa South 3.4 km/h 9.3 km/h 83 % 0 mm
23:13 23.5 °C 20.4 °C 1012.8 hPa South 2.3 km/h 13 km/h 83 % 0 mm
23:19 23.5 °C 20.4 °C 1013.1 hPa SW 1.6 km/h 7.4 km/h 83 % 0 mm
23:24 23.6 °C 20.5 °C 1013.1 hPa SSW 1.6 km/h 4.8 km/h 83 % 0 mm
23:29 23.5 °C 20.4 °C 1013.1 hPa South 2.7 km/h 5.6 km/h 83 % 0 mm
23:34 23.6 °C 20.5 °C 1013.1 hPa SSW 1.1 km/h 6.4 km/h 83 % 0 mm
23:39 23.6 °C 20.5 °C 1012.8 hPa South 1 km/h 5.6 km/h 83 % 0 mm
23:44 23.6 °C 20.3 °C 1012.8 hPa South 2.4 km/h 5.6 km/h 82 % 0 mm
23:48 23.6 °C 20.5 °C 1012.8 hPa South 2.4 km/h 6.4 km/h 83 % 0 mm
23:52 23.6 °C 20.5 °C 1012.8 hPa SSW 2.4 km/h 5.6 km/h 83 % 0 mm
23:57 23.6 °C 20.5 °C 1012.8 hPa SSW 2.6 km/h 5.6 km/h 83 % 0 mm
Crab Meadow Weather
Compliments of Weather Underground - 3 mb

Script developed by  Jim McMurry - jmcmurry@mwt.net Adapted for the template by  Wim van der Kuil - Leuven-Template.eu

Weather Terms: Wind Chill Warning - Extreme wind chills of -30°F or colder.